sensor_id;sensor_type;location;lat;lon;timestamp;temperature;humidity
23507;DHT22;11930;53.076;18.250;2023-11-21T00:01:20;1.00;99.90
23507;DHT22;11930;53.076;18.250;2023-11-21T00:03:46;0.90;99.90
23507;DHT22;11930;53.076;18.250;2023-11-21T00:06:13;1.00;99.90
23507;DHT22;11930;53.076;18.250;2023-11-21T00:08:40;1.00;99.90
23507;DHT22;11930;53.076;18.250;2023-11-21T00:11:06;0.90;99.90
23507;DHT22;11930;53.076;18.250;2023-11-21T00:13:32;0.90;99.90
23507;DHT22;11930;53.076;18.250;2023-11-21T00:15:58;0.90;99.90
23507;DHT22;11930;53.076;18.250;2023-11-21T00:18:24;0.90;99.90
23507;DHT22;11930;53.076;18.250;2023-11-21T00:20:50;0.90;99.90
23507;DHT22;11930;53.076;18.250;2023-11-21T00:23:16;0.90;99.90
23507;DHT22;11930;53.076;18.250;2023-11-21T00:25:43;0.90;99.90
23507;DHT22;11930;53.076;18.250;2023-11-21T00:28:10;0.90;99.90
23507;DHT22;11930;53.076;18.250;2023-11-21T00:30:36;0.90;99.90
23507;DHT22;11930;53.076;18.250;2023-11-21T00:33:02;0.90;99.90
23507;DHT22;11930;53.076;18.250;2023-11-21T00:35:28;0.90;99.90
23507;DHT22;11930;53.076;18.250;2023-11-21T00:37:54;0.80;99.90
23507;DHT22;11930;53.076;18.250;2023-11-21T00:40:20;0.90;99.90
23507;DHT22;11930;53.076;18.250;2023-11-21T00:42:47;0.90;99.90
23507;DHT22;11930;53.076;18.250;2023-11-21T00:45:13;0.90;99.90
23507;DHT22;11930;53.076;18.250;2023-11-21T00:47:39;0.80;99.90
23507;DHT22;11930;53.076;18.250;2023-11-21T00:50:06;0.80;99.90
23507;DHT22;11930;53.076;18.250;2023-11-21T00:52:33;0.80;99.90
23507;DHT22;11930;53.076;18.250;2023-11-21T00:54:59;0.80;99.90
23507;DHT22;11930;53.076;18.250;2023-11-21T00:57:26;0.80;99.90
23507;DHT22;11930;53.076;18.250;2023-11-21T00:59:52;0.80;99.90
23507;DHT22;11930;53.076;18.250;2023-11-21T01:02:18;0.80;99.90
23507;DHT22;11930;53.076;18.250;2023-11-21T01:04:44;0.80;99.90
23507;DHT22;11930;53.076;18.250;2023-11-21T01:07:10;0.80;99.90
23507;DHT22;11930;53.076;18.250;2023-11-21T01:09:36;0.90;99.90
23507;DHT22;11930;53.076;18.250;2023-11-21T01:12:03;0.80;99.90
23507;DHT22;11930;53.076;18.250;2023-11-21T01:14:29;0.80;99.90
23507;DHT22;11930;53.076;18.250;2023-11-21T01:16:55;0.80;99.90
23507;DHT22;11930;53.076;18.250;2023-11-21T01:19:21;0.80;99.90
23507;DHT22;11930;53.076;18.250;2023-11-21T01:21:47;0.80;99.90
23507;DHT22;11930;53.076;18.250;2023-11-21T01:24:13;0.80;99.90
23507;DHT22;11930;53.076;18.250;2023-11-21T01:26:39;0.70;99.90
23507;DHT22;11930;53.076;18.250;2023-11-21T01:29:05;0.70;99.90
23507;DHT22;11930;53.076;18.250;2023-11-21T01:31:31;0.70;99.90
23507;DHT22;11930;53.076;18.250;2023-11-21T01:33:57;0.70;99.90
23507;DHT22;11930;53.076;18.250;2023-11-21T01:36:23;0.70;99.90
23507;DHT22;11930;53.076;18.250;2023-11-21T01:38:55;0.70;99.90
23507;DHT22;11930;53.076;18.250;2023-11-21T01:41:28;0.60;99.90
23507;DHT22;11930;53.076;18.250;2023-11-21T01:43:55;0.60;99.90
23507;DHT22;11930;53.076;18.250;2023-11-21T01:46:21;0.60;99.90
23507;DHT22;11930;53.076;18.250;2023-11-21T01:48:49;0.60;99.90
23507;DHT22;11930;53.076;18.250;2023-11-21T01:51:16;0.70;99.90
23507;DHT22;11930;53.076;18.250;2023-11-21T01:53:42;0.70;99.90
23507;DHT22;11930;53.076;18.250;2023-11-21T01:56:09;0.60;99.90
23507;DHT22;11930;53.076;18.250;2023-11-21T01:58:36;0.60;99.90
23507;DHT22;11930;53.076;18.250;2023-11-21T02:01:02;0.60;99.90
23507;DHT22;11930;53.076;18.250;2023-11-21T02:03:28;0.60;99.90
23507;DHT22;11930;53.076;18.250;2023-11-21T02:05:54;0.60;99.90
23507;DHT22;11930;53.076;18.250;2023-11-21T02:08:20;0.60;99.90
23507;DHT22;11930;53.076;18.250;2023-11-21T02:10:47;0.60;99.90
23507;DHT22;11930;53.076;18.250;2023-11-21T02:13:13;0.60;99.90
23507;DHT22;11930;53.076;18.250;2023-11-21T02:15:39;0.50;99.90
23507;DHT22;11930;53.076;18.250;2023-11-21T02:18:05;0.50;99.90
23507;DHT22;11930;53.076;18.250;2023-11-21T02:20:32;0.50;99.90
23507;DHT22;11930;53.076;18.250;2023-11-21T02:23:00;0.50;99.90
23507;DHT22;11930;53.076;18.250;2023-11-21T02:25:32;0.50;99.90
23507;DHT22;11930;53.076;18.250;2023-11-21T02:28:00;0.50;99.90
23507;DHT22;11930;53.076;18.250;2023-11-21T02:30:27;0.50;99.90
23507;DHT22;11930;53.076;18.250;2023-11-21T02:32:54;0.50;99.90
23507;DHT22;11930;53.076;18.250;2023-11-21T02:35:21;0.50;99.90
23507;DHT22;11930;53.076;18.250;2023-11-21T02:37:47;0.50;99.90
23507;DHT22;11930;53.076;18.250;2023-11-21T02:40:13;0.50;99.90
23507;DHT22;11930;53.076;18.250;2023-11-21T02:42:44;0.50;99.90
23507;DHT22;11930;53.076;18.250;2023-11-21T02:45:10;0.50;99.90
23507;DHT22;11930;53.076;18.250;2023-11-21T02:47:39;0.50;99.90
23507;DHT22;11930;53.076;18.250;2023-11-21T02:50:06;0.50;99.90
23507;DHT22;11930;53.076;18.250;2023-11-21T02:52:34;0.50;99.90
23507;DHT22;11930;53.076;18.250;2023-11-21T02:55:04;0.50;99.90
23507;DHT22;11930;53.076;18.250;2023-11-21T02:57:30;0.50;99.90
23507;DHT22;11930;53.076;18.250;2023-11-21T02:59:56;0.50;99.90
23507;DHT22;11930;53.076;18.250;2023-11-21T03:02:22;0.50;99.90
23507;DHT22;11930;53.076;18.250;2023-11-21T03:04:48;0.50;99.90
23507;DHT22;11930;53.076;18.250;2023-11-21T03:07:15;0.50;99.90
23507;DHT22;11930;53.076;18.250;2023-11-21T03:09:41;0.40;99.90
23507;DHT22;11930;53.076;18.250;2023-11-21T03:12:09;0.40;99.90
23507;DHT22;11930;53.076;18.250;2023-11-21T03:14:35;0.40;99.90
23507;DHT22;11930;53.076;18.250;2023-11-21T03:17:01;0.50;99.90
23507;DHT22;11930;53.076;18.250;2023-11-21T03:19:28;0.50;99.90
23507;DHT22;11930;53.076;18.250;2023-11-21T03:21:54;0.40;99.90
23507;DHT22;11930;53.076;18.250;2023-11-21T03:24:20;0.50;99.90
23507;DHT22;11930;53.076;18.250;2023-11-21T03:26:46;0.50;99.90
23507;DHT22;11930;53.076;18.250;2023-11-21T03:29:12;0.50;99.90
23507;DHT22;11930;53.076;18.250;2023-11-21T03:31:39;0.40;99.90
23507;DHT22;11930;53.076;18.250;2023-11-21T03:34:06;0.50;99.90
23507;DHT22;11930;53.076;18.250;2023-11-21T03:36:33;0.50;99.90
23507;DHT22;11930;53.076;18.250;2023-11-21T03:38:59;0.50;99.90
23507;DHT22;11930;53.076;18.250;2023-11-21T03:41:25;0.50;99.90
23507;DHT22;11930;53.076;18.250;2023-11-21T03:43:51;0.50;99.90
23507;DHT22;11930;53.076;18.250;2023-11-21T03:46:17;0.40;99.90
23507;DHT22;11930;53.076;18.250;2023-11-21T03:48:43;0.50;99.90
23507;DHT22;11930;53.076;18.250;2023-11-21T03:51:09;0.40;99.90
23507;DHT22;11930;53.076;18.250;2023-11-21T03:53:35;0.40;99.90
23507;DHT22;11930;53.076;18.250;2023-11-21T03:56:02;0.40;99.90
23507;DHT22;11930;53.076;18.250;2023-11-21T03:58:29;0.40;99.90
23507;DHT22;11930;53.076;18.250;2023-11-21T04:00:55;0.40;99.90
23507;DHT22;11930;53.076;18.250;2023-11-21T04:03:21;0.40;99.90
23507;DHT22;11930;53.076;18.250;2023-11-21T04:05:47;0.30;99.90
23507;DHT22;11930;53.076;18.250;2023-11-21T04:08:13;0.30;99.90
23507;DHT22;11930;53.076;18.250;2023-11-21T04:10:39;0.30;99.90
23507;DHT22;11930;53.076;18.250;2023-11-21T04:13:06;0.30;99.90
23507;DHT22;11930;53.076;18.250;2023-11-21T04:15:32;0.30;99.90
23507;DHT22;11930;53.076;18.250;2023-11-21T04:17:59;0.30;99.90
23507;DHT22;11930;53.076;18.250;2023-11-21T04:20:25;0.30;99.90
23507;DHT22;11930;53.076;18.250;2023-11-21T04:22:51;0.30;99.90
23507;DHT22;11930;53.076;18.250;2023-11-21T04:25:17;0.30;99.90
23507;DHT22;11930;53.076;18.250;2023-11-21T04:27:44;0.30;99.90
23507;DHT22;11930;53.076;18.250;2023-11-21T04:30:11;0.30;99.90
23507;DHT22;11930;53.076;18.250;2023-11-21T04:32:38;0.30;99.90
23507;DHT22;11930;53.076;18.250;2023-11-21T04:35:05;0.30;99.90
23507;DHT22;11930;53.076;18.250;2023-11-21T04:37:31;0.20;99.90
23507;DHT22;11930;53.076;18.250;2023-11-21T04:39:57;0.20;99.90
23507;DHT22;11930;53.076;18.250;2023-11-21T04:42:23;0.30;99.90
23507;DHT22;11930;53.076;18.250;2023-11-21T04:44:49;0.20;99.90
23507;DHT22;11930;53.076;18.250;2023-11-21T04:47:16;0.20;99.90
23507;DHT22;11930;53.076;18.250;2023-11-21T04:49:42;0.20;99.90
23507;DHT22;11930;53.076;18.250;2023-11-21T04:52:09;0.20;99.90
23507;DHT22;11930;53.076;18.250;2023-11-21T04:54:36;0.20;99.90
23507;DHT22;11930;53.076;18.250;2023-11-21T04:57:02;0.20;99.90
23507;DHT22;11930;53.076;18.250;2023-11-21T04:59:28;0.10;99.90
23507;DHT22;11930;53.076;18.250;2023-11-21T05:01:54;0.10;99.90
23507;DHT22;11930;53.076;18.250;2023-11-21T05:04:20;0.10;99.90
23507;DHT22;11930;53.076;18.250;2023-11-21T05:06:48;0.10;99.90
23507;DHT22;11930;53.076;18.250;2023-11-21T05:09:14;0.10;99.90
23507;DHT22;11930;53.076;18.250;2023-11-21T05:11:41;0.10;99.90
23507;DHT22;11930;53.076;18.250;2023-11-21T05:14:07;0.10;99.90
23507;DHT22;11930;53.076;18.250;2023-11-21T05:16:34;0.10;99.90
23507;DHT22;11930;53.076;18.250;2023-11-21T05:19:01;0.10;99.90
23507;DHT22;11930;53.076;18.250;2023-11-21T05:21:27;0.10;99.90
23507;DHT22;11930;53.076;18.250;2023-11-21T05:23:53;0.10;99.90
23507;DHT22;11930;53.076;18.250;2023-11-21T05:26:20;0.10;99.90
23507;DHT22;11930;53.076;18.250;2023-11-21T05:28:46;0.00;99.90
23507;DHT22;11930;53.076;18.250;2023-11-21T05:31:12;0.00;99.90
23507;DHT22;11930;53.076;18.250;2023-11-21T05:33:38;0.00;99.90
23507;DHT22;11930;53.076;18.250;2023-11-21T05:36:04;0.00;99.90
23507;DHT22;11930;53.076;18.250;2023-11-21T05:38:34;0.00;99.90
23507;DHT22;11930;53.076;18.250;2023-11-21T05:41:02;0.00;99.90
23507;DHT22;11930;53.076;18.250;2023-11-21T05:43:28;0.00;99.90
23507;DHT22;11930;53.076;18.250;2023-11-21T05:45:55;0.00;99.90
23507;DHT22;11930;53.076;18.250;2023-11-21T05:48:22;0.00;99.90
23507;DHT22;11930;53.076;18.250;2023-11-21T05:50:48;0.00;99.90
23507;DHT22;11930;53.076;18.250;2023-11-21T05:53:15;0.00;99.90
23507;DHT22;11930;53.076;18.250;2023-11-21T05:55:42;0.00;99.90
23507;DHT22;11930;53.076;18.250;2023-11-21T05:58:08;0.00;99.90
23507;DHT22;11930;53.076;18.250;2023-11-21T06:00:35;0.00;99.90
23507;DHT22;11930;53.076;18.250;2023-11-21T06:03:01;0.00;99.90
23507;DHT22;11930;53.076;18.250;2023-11-21T06:05:28;-0.10;99.90
23507;DHT22;11930;53.076;18.250;2023-11-21T06:07:55;-0.10;99.90
23507;DHT22;11930;53.076;18.250;2023-11-21T06:10:25;-0.10;99.90
23507;DHT22;11930;53.076;18.250;2023-11-21T06:12:52;-0.10;99.90
23507;DHT22;11930;53.076;18.250;2023-11-21T06:15:18;-0.10;99.90
23507;DHT22;11930;53.076;18.250;2023-11-21T06:17:49;-0.10;99.90
23507;DHT22;11930;53.076;18.250;2023-11-21T06:20:18;-0.10;99.90
23507;DHT22;11930;53.076;18.250;2023-11-21T06:22:46;-0.10;99.90
23507;DHT22;11930;53.076;18.250;2023-11-21T06:25:13;-0.10;99.90
23507;DHT22;11930;53.076;18.250;2023-11-21T06:27:41;-0.10;99.90
23507;DHT22;11930;53.076;18.250;2023-11-21T06:30:08;-0.10;99.90
23507;DHT22;11930;53.076;18.250;2023-11-21T06:32:36;-0.10;99.90
23507;DHT22;11930;53.076;18.250;2023-11-21T06:35:03;-0.10;99.90
23507;DHT22;11930;53.076;18.250;2023-11-21T06:37:30;-0.10;99.90
23507;DHT22;11930;53.076;18.250;2023-11-21T06:39:58;-0.10;99.90
23507;DHT22;11930;53.076;18.250;2023-11-21T06:42:27;0.00;99.90
23507;DHT22;11930;53.076;18.250;2023-11-21T06:44:55;-0.10;99.90
23507;DHT22;11930;53.076;18.250;2023-11-21T06:47:25;0.00;99.90
23507;DHT22;11930;53.076;18.250;2023-11-21T06:49:52;0.00;99.90
23507;DHT22;11930;53.076;18.250;2023-11-21T06:52:18;0.00;99.90
23507;DHT22;11930;53.076;18.250;2023-11-21T06:54:44;0.00;99.90
23507;DHT22;11930;53.076;18.250;2023-11-21T06:57:11;0.00;99.90
23507;DHT22;11930;53.076;18.250;2023-11-21T06:59:38;0.00;99.90
23507;DHT22;11930;53.076;18.250;2023-11-21T07:02:04;0.00;99.90
23507;DHT22;11930;53.076;18.250;2023-11-21T07:04:33;0.00;99.90
23507;DHT22;11930;53.076;18.250;2023-11-21T07:06:59;0.00;99.90
23507;DHT22;11930;53.076;18.250;2023-11-21T07:09:26;0.00;99.90
23507;DHT22;11930;53.076;18.250;2023-11-21T07:11:55;0.00;99.90
23507;DHT22;11930;53.076;18.250;2023-11-21T07:14:21;0.00;99.90
23507;DHT22;11930;53.076;18.250;2023-11-21T07:16:47;0.00;99.90
23507;DHT22;11930;53.076;18.250;2023-11-21T07:19:14;0.00;99.90
23507;DHT22;11930;53.076;18.250;2023-11-21T07:21:40;0.00;99.90
23507;DHT22;11930;53.076;18.250;2023-11-21T07:24:07;0.00;99.90
23507;DHT22;11930;53.076;18.250;2023-11-21T07:26:34;0.00;99.90
23507;DHT22;11930;53.076;18.250;2023-11-21T07:29:01;0.00;99.90
23507;DHT22;11930;53.076;18.250;2023-11-21T07:31:28;0.00;99.90
23507;DHT22;11930;53.076;18.250;2023-11-21T07:33:55;0.00;99.90
23507;DHT22;11930;53.076;18.250;2023-11-21T07:36:24;0.00;99.90
23507;DHT22;11930;53.076;18.250;2023-11-21T07:38:51;0.00;99.90
23507;DHT22;11930;53.076;18.250;2023-11-21T07:41:20;0.00;99.90
23507;DHT22;11930;53.076;18.250;2023-11-21T07:43:46;0.00;99.90
23507;DHT22;11930;53.076;18.250;2023-11-21T07:46:13;0.00;99.90
23507;DHT22;11930;53.076;18.250;2023-11-21T07:48:40;0.10;99.90
23507;DHT22;11930;53.076;18.250;2023-11-21T07:51:06;0.00;99.90
23507;DHT22;11930;53.076;18.250;2023-11-21T07:53:33;0.10;99.90
23507;DHT22;11930;53.076;18.250;2023-11-21T07:56:05;0.10;99.90
23507;DHT22;11930;53.076;18.250;2023-11-21T07:58:32;0.10;99.90
23507;DHT22;11930;53.076;18.250;2023-11-21T08:01:02;0.00;99.90
23507;DHT22;11930;53.076;18.250;2023-11-21T08:03:29;0.00;99.90
23507;DHT22;11930;53.076;18.250;2023-11-21T08:06:00;0.10;99.90
23507;DHT22;11930;53.076;18.250;2023-11-21T08:08:26;0.00;99.90
23507;DHT22;11930;53.076;18.250;2023-11-21T08:10:53;0.10;99.90
23507;DHT22;11930;53.076;18.250;2023-11-21T08:13:26;0.10;99.90
23507;DHT22;11930;53.076;18.250;2023-11-21T08:15:55;0.10;99.90
23507;DHT22;11930;53.076;18.250;2023-11-21T08:18:22;0.10;99.90
23507;DHT22;11930;53.076;18.250;2023-11-21T08:20:48;0.10;99.90
23507;DHT22;11930;53.076;18.250;2023-11-21T08:23:15;0.10;99.90
23507;DHT22;11930;53.076;18.250;2023-11-21T08:25:45;0.20;99.90
23507;DHT22;11930;53.076;18.250;2023-11-21T08:28:12;0.20;99.90
23507;DHT22;11930;53.076;18.250;2023-11-21T08:30:40;0.30;99.90
23507;DHT22;11930;53.076;18.250;2023-11-21T08:33:07;0.30;99.90
23507;DHT22;11930;53.076;18.250;2023-11-21T08:35:38;0.30;99.90
23507;DHT22;11930;53.076;18.250;2023-11-21T08:38:04;0.30;99.90
23507;DHT22;11930;53.076;18.250;2023-11-21T08:40:30;0.30;99.90
23507;DHT22;11930;53.076;18.250;2023-11-21T08:42:57;0.40;99.90
23507;DHT22;11930;53.076;18.250;2023-11-21T08:45:25;0.40;99.90
23507;DHT22;11930;53.076;18.250;2023-11-21T08:47:54;0.50;99.90
23507;DHT22;11930;53.076;18.250;2023-11-21T08:50:20;0.40;99.90
23507;DHT22;11930;53.076;18.250;2023-11-21T08:52:46;0.40;99.90
23507;DHT22;11930;53.076;18.250;2023-11-21T08:55:13;0.40;99.90
23507;DHT22;11930;53.076;18.250;2023-11-21T08:57:40;0.40;99.90
23507;DHT22;11930;53.076;18.250;2023-11-21T09:00:10;0.50;99.90
23507;DHT22;11930;53.076;18.250;2023-11-21T09:02:38;0.50;99.90
23507;DHT22;11930;53.076;18.250;2023-11-21T09:05:05;0.60;99.90
23507;DHT22;11930;53.076;18.250;2023-11-21T09:07:32;0.60;99.90
23507;DHT22;11930;53.076;18.250;2023-11-21T09:09:58;0.50;99.90
23507;DHT22;11930;53.076;18.250;2023-11-21T09:12:24;0.50;99.90
23507;DHT22;11930;53.076;18.250;2023-11-21T09:14:51;0.60;99.90
23507;DHT22;11930;53.076;18.250;2023-11-21T09:17:17;0.50;99.90
23507;DHT22;11930;53.076;18.250;2023-11-21T09:19:43;0.60;99.90
23507;DHT22;11930;53.076;18.250;2023-11-21T09:22:11;0.60;99.90
23507;DHT22;11930;53.076;18.250;2023-11-21T09:24:37;0.70;99.90
23507;DHT22;11930;53.076;18.250;2023-11-21T09:27:03;0.70;99.90
23507;DHT22;11930;53.076;18.250;2023-11-21T09:29:30;0.70;99.90
23507;DHT22;11930;53.076;18.250;2023-11-21T09:31:57;0.70;99.90
23507;DHT22;11930;53.076;18.250;2023-11-21T09:34:27;0.70;99.90
23507;DHT22;11930;53.076;18.250;2023-11-21T09:36:53;0.70;99.90
23507;DHT22;11930;53.076;18.250;2023-11-21T09:39:19;0.70;99.90
23507;DHT22;11930;53.076;18.250;2023-11-21T09:41:53;0.70;99.90
23507;DHT22;11930;53.076;18.250;2023-11-21T09:44:35;0.80;99.90
23507;DHT22;11930;53.076;18.250;2023-11-21T09:47:03;0.70;99.90
23507;DHT22;11930;53.076;18.250;2023-11-21T09:49:32;0.80;99.90
23507;DHT22;11930;53.076;18.250;2023-11-21T09:52:01;0.80;99.90
23507;DHT22;11930;53.076;18.250;2023-11-21T09:54:30;0.70;99.90
23507;DHT22;11930;53.076;18.250;2023-11-21T09:56:59;0.70;99.90
23507;DHT22;11930;53.076;18.250;2023-11-21T09:59:30;0.70;99.90
23507;DHT22;11930;53.076;18.250;2023-11-21T10:01:58;0.80;99.90
23507;DHT22;11930;53.076;18.250;2023-11-21T10:04:24;0.70;99.90
23507;DHT22;11930;53.076;18.250;2023-11-21T10:06:53;0.70;99.90
23507;DHT22;11930;53.076;18.250;2023-11-21T10:09:19;0.80;99.90
23507;DHT22;11930;53.076;18.250;2023-11-21T10:11:47;0.80;99.90
23507;DHT22;11930;53.076;18.250;2023-11-21T10:14:16;0.80;99.90
23507;DHT22;11930;53.076;18.250;2023-11-21T10:16:46;0.80;99.90
23507;DHT22;11930;53.076;18.250;2023-11-21T10:19:14;0.80;99.90
23507;DHT22;11930;53.076;18.250;2023-11-21T10:21:42;0.80;99.90
23507;DHT22;11930;53.076;18.250;2023-11-21T10:24:08;0.80;99.90
23507;DHT22;11930;53.076;18.250;2023-11-21T10:26:35;0.80;99.90
23507;DHT22;11930;53.076;18.250;2023-11-21T10:29:02;0.80;99.90
23507;DHT22;11930;53.076;18.250;2023-11-21T10:31:32;0.80;99.90
23507;DHT22;11930;53.076;18.250;2023-11-21T10:34:17;0.80;99.90
23507;DHT22;11930;53.076;18.250;2023-11-21T10:36:44;0.80;99.90
23507;DHT22;11930;53.076;18.250;2023-11-21T10:39:20;0.70;99.90
23507;DHT22;11930;53.076;18.250;2023-11-21T10:41:49;0.80;99.90
23507;DHT22;11930;53.076;18.250;2023-11-21T10:44:18;0.80;99.90
23507;DHT22;11930;53.076;18.250;2023-11-21T10:46:52;0.70;99.90
23507;DHT22;11930;53.076;18.250;2023-11-21T10:49:25;0.80;99.90
23507;DHT22;11930;53.076;18.250;2023-11-21T10:51:53;0.70;99.90
23507;DHT22;11930;53.076;18.250;2023-11-21T10:54:23;0.70;99.90
23507;DHT22;11930;53.076;18.250;2023-11-21T10:56:53;0.80;99.90
23507;DHT22;11930;53.076;18.250;2023-11-21T10:59:22;0.70;99.90
23507;DHT22;11930;53.076;18.250;2023-11-21T11:01:51;0.70;99.90
23507;DHT22;11930;53.076;18.250;2023-11-21T11:04:19;0.70;99.90
23507;DHT22;11930;53.076;18.250;2023-11-21T11:06:56;0.70;99.90
23507;DHT22;11930;53.076;18.250;2023-11-21T11:09:23;0.70;99.90
23507;DHT22;11930;53.076;18.250;2023-11-21T11:11:51;0.70;99.90
23507;DHT22;11930;53.076;18.250;2023-11-21T11:14:19;0.80;99.90
23507;DHT22;11930;53.076;18.250;2023-11-21T11:16:45;0.80;99.90
23507;DHT22;11930;53.076;18.250;2023-11-21T11:19:11;0.80;99.90
23507;DHT22;11930;53.076;18.250;2023-11-21T11:35:54;0.80;99.90
23507;DHT22;11930;53.076;18.250;2023-11-21T11:38:22;0.90;99.90
23507;DHT22;11930;53.076;18.250;2023-11-21T11:40:54;0.80;99.90
23507;DHT22;11930;53.076;18.250;2023-11-21T11:43:27;0.80;99.90
23507;DHT22;11930;53.076;18.250;2023-11-21T11:45:56;0.90;99.90
23507;DHT22;11930;53.076;18.250;2023-11-21T11:48:25;0.80;99.90
23507;DHT22;11930;53.076;18.250;2023-11-21T11:51:14;0.80;99.90
23507;DHT22;11930;53.076;18.250;2023-11-21T11:53:44;0.80;99.90
23507;DHT22;11930;53.076;18.250;2023-11-21T11:56:24;0.80;99.90
23507;DHT22;11930;53.076;18.250;2023-11-21T11:58:56;0.90;99.90
23507;DHT22;11930;53.076;18.250;2023-11-21T12:01:26;0.90;99.90
23507;DHT22;11930;53.076;18.250;2023-11-21T12:06:43;0.90;99.90
23507;DHT22;11930;53.076;18.250;2023-11-21T12:09:18;0.90;99.90
23507;DHT22;11930;53.076;18.250;2023-11-21T12:11:45;1.00;99.90
23507;DHT22;11930;53.076;18.250;2023-11-21T12:14:13;1.00;99.90
23507;DHT22;11930;53.076;18.250;2023-11-21T12:16:40;0.90;99.90
23507;DHT22;11930;53.076;18.250;2023-11-21T12:19:06;0.90;99.90
23507;DHT22;11930;53.076;18.250;2023-11-21T12:21:32;1.00;99.90
23507;DHT22;11930;53.076;18.250;2023-11-21T12:23:58;0.90;99.90
23507;DHT22;11930;53.076;18.250;2023-11-21T12:26:24;0.90;99.90
23507;DHT22;11930;53.076;18.250;2023-11-21T12:28:53;0.90;99.90
23507;DHT22;11930;53.076;18.250;2023-11-21T12:31:23;0.90;99.90
23507;DHT22;11930;53.076;18.250;2023-11-21T12:33:49;0.90;99.90
23507;DHT22;11930;53.076;18.250;2023-11-21T12:36:16;0.90;99.90
23507;DHT22;11930;53.076;18.250;2023-11-21T12:38:42;0.90;99.90
23507;DHT22;11930;53.076;18.250;2023-11-21T12:41:09;0.90;99.90
23507;DHT22;11930;53.076;18.250;2023-11-21T12:43:38;0.90;99.90
23507;DHT22;11930;53.076;18.250;2023-11-21T12:46:08;0.90;99.90
23507;DHT22;11930;53.076;18.250;2023-11-21T12:48:41;0.90;99.90
23507;DHT22;11930;53.076;18.250;2023-11-21T12:51:13;0.90;99.90
23507;DHT22;11930;53.076;18.250;2023-11-21T12:53:41;0.90;99.90
23507;DHT22;11930;53.076;18.250;2023-11-21T12:56:11;0.90;99.90
23507;DHT22;11930;53.076;18.250;2023-11-21T12:58:38;0.90;99.90
23507;DHT22;11930;53.076;18.250;2023-11-21T13:01:08;0.90;99.90
23507;DHT22;11930;53.076;18.250;2023-11-21T13:03:47;0.90;99.90
23507;DHT22;11930;53.076;18.250;2023-11-21T13:06:17;0.90;99.90
23507;DHT22;11930;53.076;18.250;2023-11-21T13:08:44;0.90;99.90
23507;DHT22;11930;53.076;18.250;2023-11-21T13:11:11;0.90;99.90
23507;DHT22;11930;53.076;18.250;2023-11-21T13:13:41;0.80;99.90
23507;DHT22;11930;53.076;18.250;2023-11-21T13:16:08;0.80;99.90
23507;DHT22;11930;53.076;18.250;2023-11-21T13:18:35;0.90;99.90
23507;DHT22;11930;53.076;18.250;2023-11-21T13:21:06;0.90;99.90
23507;DHT22;11930;53.076;18.250;2023-11-21T13:23:38;0.90;99.90
23507;DHT22;11930;53.076;18.250;2023-11-21T13:26:06;0.90;99.90
23507;DHT22;11930;53.076;18.250;2023-11-21T13:28:33;0.90;99.90
23507;DHT22;11930;53.076;18.250;2023-11-21T13:31:00;0.90;99.90
23507;DHT22;11930;53.076;18.250;2023-11-21T13:33:36;1.00;99.90
23507;DHT22;11930;53.076;18.250;2023-11-21T13:36:06;1.00;99.90
23507;DHT22;11930;53.076;18.250;2023-11-21T13:38:36;1.00;99.90
23507;DHT22;11930;53.076;18.250;2023-11-21T13:41:03;1.00;99.90
23507;DHT22;11930;53.076;18.250;2023-11-21T13:43:33;1.00;99.90
23507;DHT22;11930;53.076;18.250;2023-11-21T13:45:59;1.00;99.90
23507;DHT22;11930;53.076;18.250;2023-11-21T13:48:41;1.00;99.90
23507;DHT22;11930;53.076;18.250;2023-11-21T13:51:11;1.00;99.90
23507;DHT22;11930;53.076;18.250;2023-11-21T13:53:47;0.90;99.90
23507;DHT22;11930;53.076;18.250;2023-11-21T13:56:15;0.90;99.90
23507;DHT22;11930;53.076;18.250;2023-11-21T13:58:45;0.90;99.90
23507;DHT22;11930;53.076;18.250;2023-11-21T14:01:18;0.90;99.90
23507;DHT22;11930;53.076;18.250;2023-11-21T14:04:01;0.90;99.90
23507;DHT22;11930;53.076;18.250;2023-11-21T14:06:35;0.90;99.90
23507;DHT22;11930;53.076;18.250;2023-11-21T14:09:11;0.90;99.90
23507;DHT22;11930;53.076;18.250;2023-11-21T14:11:39;0.80;99.90
23507;DHT22;11930;53.076;18.250;2023-11-21T14:14:05;0.80;99.90
23507;DHT22;11930;53.076;18.250;2023-11-21T14:16:31;0.80;99.90
23507;DHT22;11930;53.076;18.250;2023-11-21T14:18:58;0.80;99.90
23507;DHT22;11930;53.076;18.250;2023-11-21T14:21:35;0.80;99.90
23507;DHT22;11930;53.076;18.250;2023-11-21T14:24:01;0.70;99.90
23507;DHT22;11930;53.076;18.250;2023-11-21T14:26:28;0.80;99.90
23507;DHT22;11930;53.076;18.250;2023-11-21T14:28:55;0.70;99.90
23507;DHT22;11930;53.076;18.250;2023-11-21T14:31:23;0.70;99.90
23507;DHT22;11930;53.076;18.250;2023-11-21T14:33:49;0.70;99.90
23507;DHT22;11930;53.076;18.250;2023-11-21T14:36:15;0.70;99.90
23507;DHT22;11930;53.076;18.250;2023-11-21T14:38:43;0.60;99.90
23507;DHT22;11930;53.076;18.250;2023-11-21T14:41:09;0.60;99.90
23507;DHT22;11930;53.076;18.250;2023-11-21T14:43:37;0.50;99.90
23507;DHT22;11930;53.076;18.250;2023-11-21T14:46:05;0.50;99.90
23507;DHT22;11930;53.076;18.250;2023-11-21T14:48:36;0.50;99.90
23507;DHT22;11930;53.076;18.250;2023-11-21T14:51:11;0.50;99.90
23507;DHT22;11930;53.076;18.250;2023-11-21T14:53:54;0.40;99.90
23507;DHT22;11930;53.076;18.250;2023-11-21T14:56:23;0.40;99.90
23507;DHT22;11930;53.076;18.250;2023-11-21T14:59:01;0.40;99.90
23507;DHT22;11930;53.076;18.250;2023-11-21T15:01:42;0.40;99.90
23507;DHT22;11930;53.076;18.250;2023-11-21T15:04:21;0.40;99.90
23507;DHT22;11930;53.076;18.250;2023-11-21T15:07:05;0.40;99.90
23507;DHT22;11930;53.076;18.250;2023-11-21T15:09:32;0.40;99.90
23507;DHT22;11930;53.076;18.250;2023-11-21T15:11:58;0.30;99.90
23507;DHT22;11930;53.076;18.250;2023-11-21T15:14:35;0.40;99.90
23507;DHT22;11930;53.076;18.250;2023-11-21T15:17:02;0.40;99.90
23507;DHT22;11930;53.076;18.250;2023-11-21T15:19:29;0.40;99.90
23507;DHT22;11930;53.076;18.250;2023-11-21T15:21:57;0.40;99.90
23507;DHT22;11930;53.076;18.250;2023-11-21T15:24:24;0.40;99.90
23507;DHT22;11930;53.076;18.250;2023-11-21T15:26:50;0.40;99.90
23507;DHT22;11930;53.076;18.250;2023-11-21T15:29:17;0.40;99.90
23507;DHT22;11930;53.076;18.250;2023-11-21T15:31:43;0.40;99.90
23507;DHT22;11930;53.076;18.250;2023-11-21T15:34:17;0.40;99.90
23507;DHT22;11930;53.076;18.250;2023-11-21T15:36:43;0.30;99.90
23507;DHT22;11930;53.076;18.250;2023-11-21T15:39:10;0.40;99.90
23507;DHT22;11930;53.076;18.250;2023-11-21T15:41:38;0.30;99.90
23507;DHT22;11930;53.076;18.250;2023-11-21T15:44:06;0.30;99.90
23507;DHT22;11930;53.076;18.250;2023-11-21T15:46:35;0.30;99.90
23507;DHT22;11930;53.076;18.250;2023-11-21T15:49:03;0.30;99.90
23507;DHT22;11930;53.076;18.250;2023-11-21T15:51:42;0.30;99.90